Ana Sayfa
METAR-TAF:

METAR-TAF

Havaalanları :

Phnom Penh Uluslararası Havalimanı

Phnom Penh, Kamboçya

Enlem: 11-33N, Boylam: 104-51E, yükseklik: 10 m

Güncel hava durumu gözlemi

Rapor saat 04:00 UTC de 25 dakika önce yapıldı.
Rüzgar değişken yönden 2 kt
Sıcaklık 31°C
Nem 55%
Basınç 1015 hPa
Görüş mesafesi: 9000 m

METAR: VDPP 220400Z VRB02KT 9000 NSC 31/21 Q1015

Saat: 11:25 (04:25 UTC)

Tahmin

Rapor saat 23:00 UTC de 5 saat ve 25 dakika önce yapıldı.
Ayın 22'si saat 00 UTC'den ayın 22'si saat 18 UTC'ye kadar geçerli Tahmin
Rüzgar doğu/güneydoğudan 7 kt
Görüş mesafesi 10 km veya daha fazla
1700 ft yükseklikte parçalı bulutlu

TAF: VDPP 212300Z 2200/2218 12007KT 9999 SCT017

4.000'den fazla havaalanı için hava durumu gözlemleri ve tahminleri (METAR ve TAF raporları).

Kullanılabilir istasyonlar harita üzerinde sarı ve kırmızı noktalarla gösterilir.

İstasyonun adını görmek için fareyi noktanın üzerinde gezdirin.

Sonrasında hava gözlem ve tahminlerini görmek için tıklayın.

Haritayı değiştirmek için: yaklaştırmak için siyah artı işaretli yeşil düğmeye ve uzaklaştırmak için de eksi işaretli düğmeye hızla tıklayın; bitişik haritalar için yeşil okları kullanın.


METAR-TAF: